Time;durP1;ratioP1;P1;durP2;ratioP2;P2;SDS_P1;SDS_P2;PMS_P1;PMS_P2;Temp;Humidity;BMP_temperature;BMP_pressure;BME280_temperature;BME280_humidity;BME280_pressure;Samples;Min_cycle;Max_cycle;Signal;HPM_P1;HPM_P2
2021/11/27 04:03:08;;;;;;;3.03;2.38;;;3.80;90.00;;;;;;5132051;27;20351;-47
2021/11/27 04:05:41;;;;;;;3.65;3.10;;;3.90;90.00;;;;;;5131514;28;20027;-49
2021/11/27 04:08:07;;;;;;;3.65;2.60;;;4.00;89.90;;;;;;5131483;28;20076;-49
2021/11/27 04:10:32;;;;;;;5.18;2.25;;;4.10;90.00;;;;;;5131297;28;20107;-48
2021/11/27 04:12:59;;;;;;;3.72;2.78;;;4.20;89.80;;;;;;5131258;28;20080;-48
2021/11/27 04:15:26;;;;;;;3.03;2.70;;;4.30;89.20;;;;;;5112801;28;20471;-50
2021/11/27 04:17:51;;;;;;;3.38;3.08;;;4.30;89.20;;;;;;5116287;28;20034;-49
2021/11/27 04:20:17;;;;;;;4.78;2.92;;;4.40;88.60;;;;;;5131100;27;20103;-48
2021/11/27 04:22:43;;;;;;;4.57;3.15;;;4.30;88.90;;;;;;5130162;28;20038;-50
2021/11/27 04:25:09;;;;;;;13.40;9.05;;;4.20;89.20;;;;;;5131082;27;20076;-49
2021/11/27 04:27:35;;;;;;;28.15;15.85;;;4.20;89.80;;;;;;5130963;27;20376;-49
2021/11/27 04:30:03;;;;;;;31.98;17.48;;;4.00;91.10;;;;;;5130892;27;20030;-52
2021/11/27 04:32:28;;;;;;;33.67;18.95;;;3.90;91.60;;;;;;5131061;27;20032;-52
2021/11/27 04:34:54;;;;;;;39.97;20.42;;;3.80;92.50;;;;;;5131010;27;20489;-50
2021/11/27 04:37:21;;;;;;;38.67;20.90;;;3.90;92.40;;;;;;5130952;27;20055;-53
2021/11/27 04:39:47;;;;;;;37.28;19.20;;;3.80;92.30;;;;;;5130712;27;20042;-48
2021/11/27 04:42:13;;;;;;;23.77;13.85;;;3.70;91.80;;;;;;5130492;27;20027;-51
2021/11/27 04:44:38;;;;;;;30.40;17.70;;;3.70;91.50;;;;;;5130655;27;20034;-50
2021/11/27 04:47:04;;;;;;;34.83;19.55;;;3.60;91.60;;;;;;5130897;27;20393;-50
2021/11/27 04:49:30;;;;;;;27.73;16.60;;;3.50;91.70;;;;;;5130567;27;20486;-52
2021/11/27 04:51:55;;;;;;;29.98;16.55;;;3.40;91.50;;;;;;5130492;27;20058;-48
2021/11/27 04:54:21;;;;;;;21.33;13.02;;;3.30;91.10;;;;;;5130435;27;20389;-49
2021/11/27 04:56:47;;;;;;;22.85;12.85;;;3.30;90.40;;;;;;5130724;27;20027;-48
2021/11/27 04:59:12;;;;;;;22.23;11.68;;;3.30;90.30;;;;;;5130615;27;20031;-50
2021/11/27 05:01:38;;;;;;;16.63;10.07;;;3.30;90.00;;;;;;5130188;27;20439;-48
2021/11/27 05:04:04;;;;;;;16.23;9.52;;;3.20;90.20;;;;;;5131163;27;20497;-51
2021/11/27 05:06:31;;;;;;;21.30;9.45;;;3.10;90.20;;;;;;5130468;27;20026;-51
2021/11/27 05:08:57;;;;;;;17.30;9.52;;;3.00;90.30;;;;;;5130165;27;20153;-48
2021/11/27 05:11:23;;;;;;;14.82;8.32;;;2.80;90.60;;;;;;5130133;27;20055;-49
2021/11/27 05:13:49;;;;;;;16.73;8.40;;;2.80;90.50;;;;;;5120270;27;20028;-49
2021/11/27 05:16:15;;;;;;;18.05;9.43;;;2.80;90.70;;;;;;5116716;28;20379;-51
2021/11/27 05:18:43;;;;;;;19.00;9.55;;;2.80;90.80;;;;;;5114879;28;20020;-51
2021/11/27 05:21:09;;;;;;;17.80;9.68;;;2.80;90.70;;;;;;5116235;28;20016;-52
2021/11/27 05:23:35;;;;;;;18.35;8.95;;;2.80;90.80;;;;;;5114762;28;20356;-50
2021/11/27 05:26:01;;;;;;;16.50;9.63;;;2.60;91.40;;;;;;5115816;28;20092;-48
2021/11/27 05:28:27;;;;;;;18.27;7.40;;;2.60;91.90;;;;;;5116349;28;20020;-48
2021/11/27 05:30:53;;;;;;;15.75;8.88;;;2.60;92.10;;;;;;5116264;28;20373;-49
2021/11/27 05:33:23;;;;;;;12.25;8.15;;;2.70;92.00;;;;;;5116010;28;20024;-52
2021/11/27 05:35:50;;;;;;;;;;;2.60;92.30;;;;;;5116558;28;20494;-49
2021/11/27 05:38:15;;;;;;;9.60;5.90;;;2.60;92.30;;;;;;5115906;28;19910;-50
2021/11/27 05:40:41;;;;;;;11.30;6.82;;;2.50;92.00;;;;;;5116014;28;20122;-49
2021/11/27 05:43:07;;;;;;;13.85;8.15;;;2.50;92.30;;;;;;5115980;28;20028;-53
2021/11/27 05:45:33;;;;;;;14.05;7.40;;;2.60;92.30;;;;;;5116014;28;20027;-48
2021/11/27 05:48:01;;;;;;;11.40;6.53;;;2.60;92.00;;;;;;5115683;27;20019;-49
2021/11/27 05:50:28;;;;;;;13.93;7.88;;;2.60;92.30;;;;;;5116182;28;20167;-48
2021/11/27 05:52:54;;;;;;;12.05;8.02;;;2.60;92.40;;;;;;5115973;28;20459;-48
2021/11/27 05:55:21;;;;;;;17.08;9.98;;;2.60;92.50;;;;;;5115405;27;20059;-51
2021/11/27 05:57:48;;;;;;;14.05;8.20;;;2.70;92.50;;;;;;5115928;28;20023;-50
2021/11/27 06:00:15;;;;;;;18.23;10.38;;;2.60;92.20;;;;;;5115493;28;20471;-48
2021/11/27 06:02:41;;;;;;;18.58;9.75;;;2.60;92.20;;;;;;5113940;28;20452;-51
2021/11/27 06:05:08;;;;;;;15.75;9.75;;;2.70;92.30;;;;;;5115946;28;20039;-49
2021/11/27 06:07:33;;;;;;;14.98;9.30;;;2.70;92.10;;;;;;5115440;28;20497;-50
2021/11/27 06:09:59;;;;;;;17.10;9.45;;;2.70;92.30;;;;;;5115798;28;20102;-50
2021/11/27 06:12:25;;;;;;;18.90;10.10;;;2.70;92.40;;;;;;5115869;28;20042;-48
2021/11/27 06:14:50;;;;;;;15.63;9.77;;;2.70;92.30;;;;;;5115418;28;20121;-48
2021/11/27 06:17:16;;;;;;;17.50;10.07;;;2.70;92.30;;;;;;5115236;28;20103;-48
2021/11/27 06:19:42;;;;;;;11.90;7.57;;;2.70;92.40;;;;;;5115411;28;20114;-48
2021/11/27 06:22:07;;;;;;;15.32;9.32;;;2.80;92.40;;;;;;5115118;28;20472;-49
2021/11/27 06:24:33;;;;;;;19.08;10.95;;;2.70;92.50;;;;;;5114129;28;20027;-49
2021/11/27 06:26:58;;;;;;;17.85;11.25;;;2.80;92.60;;;;;;5115341;28;20031;-49
2021/11/27 06:29:24;;;;;;;17.77;11.55;;;2.70;92.50;;;;;;5115037;28;20035;-49
2021/11/27 06:31:50;;;;;;;21.83;11.43;;;2.80;92.70;;;;;;5114986;28;20080;-51
2021/11/27 06:34:17;;;;;;;21.67;12.48;;;2.80;92.40;;;;;;5114948;28;20125;-48
2021/11/27 06:36:42;;;;;;;18.00;10.63;;;2.80;92.60;;;;;;5097147;28;20027;-48
2021/11/27 06:39:08;;;;;;;21.52;12.75;;;2.80;92.90;;;;;;5114922;28;20024;-50
2021/11/27 06:41:34;;;;;;;24.33;12.00;;;2.80;92.70;;;;;;5114928;28;20034;-48
2021/11/27 06:43:59;;;;;;;21.35;12.80;;;2.80;92.80;;;;;;5115951;28;20111;-52
2021/11/27 06:46:25;;;;;;;24.33;13.80;;;2.80;92.90;;;;;;5115298;28;20538;-49
2021/11/27 06:48:51;;;;;;;23.98;14.18;;;2.90;92.80;;;;;;5115329;28;20023;-49
2021/11/27 06:51:17;;;;;;;24.52;14.90;;;2.80;93.10;;;;;;5114525;28;20027;-51
2021/11/27 06:53:43;;;;;;;25.67;14.55;;;2.90;93.00;;;;;;5114652;28;20047;-53
2021/11/27 06:56:08;;;;;;;25.02;13.68;;;3.00;92.70;;;;;;5114587;28;20102;-54
2021/11/27 06:58:34;;;;;;;23.88;13.60;;;2.90;92.80;;;;;;5114541;28;20108;-48
2021/11/27 07:01:00;;;;;;;26.42;13.85;;;2.90;93.10;;;;;;5114566;28;20519;-49
2021/11/27 07:03:25;;;;;;;24.38;14.18;;;3.00;93.20;;;;;;5114596;28;20026;-51
2021/11/27 07:05:51;;;;;;;25.60;15.25;;;3.00;92.80;;;;;;5114343;28;20122;-51
2021/11/27 07:08:17;;;;;;;22.50;13.07;;;3.10;92.70;;;;;;5114233;28;20047;-52
2021/11/27 07:10:47;;;;;;;30.77;12.95;;;3.00;92.30;;;;;;5114162;28;20099;-49
2021/11/27 07:13:13;;;;;;;24.75;12.90;;;3.00;92.30;;;;;;5114126;28;20098;-50
2021/11/27 07:15:38;;;;;;;22.15;12.98;;;3.20;92.30;;;;;;5114342;28;20063;-50
2021/11/27 07:18:04;;;;;;;23.67;13.82;;;3.30;91.90;;;;;;5114305;28;20047;-50
2021/11/27 07:20:30;;;;;;;25.60;12.90;;;3.30;91.70;;;;;;5114022;28;20020;-52
2021/11/27 07:22:55;;;;;;;25.25;13.55;;;3.30;91.60;;;;;;5113980;28;20020;-52
2021/11/27 07:25:21;;;;;;;26.10;14.18;;;3.30;91.30;;;;;;5113892;28;20054;-50
2021/11/27 07:27:47;;;;;;;28.60;14.20;;;3.40;91.50;;;;;;5114188;28;20039;-49
2021/11/27 07:30:12;;;;;;;27.13;13.18;;;3.50;91.50;;;;;;5114340;28;20043;-54
2021/11/27 07:32:38;;;;;;;25.80;13.98;;;3.50;91.10;;;;;;5113831;28;20047;-50
2021/11/27 07:35:05;;;;;;;25.75;14.40;;;3.50;91.10;;;;;;5112410;28;20031;-51
2021/11/27 07:37:31;;;;;;;25.33;13.57;;;3.60;90.70;;;;;;5113368;28;20049;-51
2021/11/27 07:39:57;;;;;;;25.65;14.70;;;3.50;90.50;;;;;;5114090;28;20406;-52
2021/11/27 07:42:23;;;;;;;23.90;12.93;;;3.50;90.80;;;;;;5113669;28;20024;-48
2021/11/27 07:44:49;;;;;;;25.20;14.50;;;3.40;91.00;;;;;;5113723;28;20154;-49
2021/11/27 07:47:14;;;;;;;22.80;13.15;;;3.50;91.10;;;;;;5112457;28;20476;-50
2021/11/27 07:49:40;;;;;;;19.63;10.90;;;3.50;91.10;;;;;;5113921;28;20525;-51
2021/11/27 07:52:05;;;;;;;23.50;13.25;;;3.60;90.80;;;;;;5112274;28;20034;-49
2021/11/27 07:54:32;;;;;;;22.42;13.65;;;3.50;90.50;;;;;;5113823;28;20023;-52
2021/11/27 07:56:57;;;;;;;25.95;14.15;;;3.50;90.70;;;;;;5113565;28;20030;-52
2021/11/27 07:59:23;;;;;;;24.90;12.00;;;3.70;90.70;;;;;;5113338;28;20468;-50
2021/11/27 14:03:18;;;;;;;16.10;4.10;;;5.70;67.00;;;;;;5027534;28;20115;-48
2021/11/27 14:05:54;;;;;;;10.90;2.88;;;5.70;66.80;;;;;;5027276;28;20026;-49
2021/11/27 14:08:22;;;;;;;10.75;2.85;;;5.80;66.50;;;;;;5027728;28;20063;-52
2021/11/27 14:11:09;;;;;;;10.95;2.90;;;5.90;65.90;;;;;;5027253;28;20105;-52
2021/11/27 14:13:41;;;;;;;8.45;2.95;;;6.10;65.60;;;;;;5027089;28;20146;-49
2021/11/27 14:16:20;;;;;;;14.60;3.22;;;6.10;64.90;;;;;;5027511;28;20030;-49
2021/11/27 14:18:46;;;;;;;10.88;3.08;;;6.10;64.20;;;;;;5027717;28;20024;-49
2021/11/27 14:21:15;;;;;;;7.88;2.58;;;6.00;63.00;;;;;;5027293;28;20373;-52
2021/11/27 14:23:45;;;;;;;14.98;2.65;;;6.10;62.60;;;;;;5026867;28;20152;-49
2021/11/27 14:26:16;;;;;;;12.18;2.47;;;6.10;62.90;;;;;;5027564;28;20029;-49
2021/11/27 14:28:47;;;;;;;10.23;4.03;;;6.10;62.70;;;;;;5027673;28;20052;-51
2021/11/27 14:31:19;;;;;;;6.75;2.33;;;6.10;62.60;;;;;;5028885;28;20028;-50
2021/11/27 14:34:06;;;;;;;4.95;2.33;;;6.10;62.40;;;;;;5027128;28;20060;-50
2021/11/27 14:36:37;;;;;;;8.48;3.85;;;5.90;63.00;;;;;;5025401;28;20025;-52
2021/11/27 14:39:12;;;;;;;6.68;1.48;;;5.90;62.70;;;;;;5026544;28;20478;-48
2021/11/27 14:41:42;;;;;;;9.23;3.63;;;5.80;63.00;;;;;;5026798;28;20030;-49
2021/11/27 14:44:17;;;;;;;10.07;2.60;;;5.80;63.60;;;;;;5027014;28;20085;-49
2021/11/27 14:47:04;;;;;;;13.00;2.80;;;5.70;63.30;;;;;;5026527;28;20421;-49
2021/11/27 14:49:39;;;;;;;9.50;2.78;;;5.70;64.00;;;;;;5026504;28;20462;-49
2021/11/27 14:52:08;;;;;;;11.55;2.78;;;5.60;64.60;;;;;;5026826;28;20401;-49
2021/11/27 14:54:43;;;;;;;15.65;4.05;;;5.60;65.20;;;;;;5026451;28;20064;-51
2021/11/27 14:57:18;;;;;;;5.53;2.53;;;5.50;65.30;;;;;;5025719;28;20040;-49
2021/11/27 14:59:45;;;;;;;13.20;4.03;;;5.40;65.50;;;;;;5025765;28;20037;-50
2021/11/27 15:02:10;;;;;;;11.85;2.95;;;5.30;65.60;;;;;;5025876;28;20133;-48
2021/11/27 15:04:36;;;;;;;12.55;4.03;;;5.30;65.80;;;;;;5026675;28;20109;-49
2021/11/27 15:07:02;;;;;;;9.20;2.88;;;5.30;66.50;;;;;;5024517;28;20367;-53
2021/11/27 15:09:27;;;;;;;7.30;2.72;;;5.20;67.10;;;;;;5026628;28;20026;-49
2021/11/27 15:11:53;;;;;;;9.80;2.72;;;5.10;67.20;;;;;;5025644;28;20061;-50
2021/11/27 15:14:19;;;;;;;7.88;2.50;;;5.00;67.70;;;;;;5013137;28;20032;-52
2021/11/27 15:16:47;;;;;;;4.97;2.40;;;5.00;68.00;;;;;;5013041;28;20036;-48
2021/11/27 15:19:13;;;;;;;6.88;2.90;;;4.90;68.60;;;;;;5013426;28;20478;-48
2021/11/27 15:21:38;;;;;;;7.85;2.63;;;4.90;69.30;;;;;;5013698;28;20029;-49
2021/11/27 15:24:04;;;;;;;16.00;4.00;;;4.80;69.20;;;;;;5012496;28;20112;-50
2021/11/27 15:26:31;;;;;;;9.70;3.55;;;4.80;69.50;;;;;;5010942;28;20030;-49
2021/11/27 15:28:58;;;;;;;18.90;3.72;;;4.80;70.20;;;;;;5012294;28;20034;-50
2021/11/27 15:31:24;;;;;;;7.40;2.60;;;4.70;70.90;;;;;;5012458;28;20026;-49
2021/11/27 15:33:50;;;;;;;12.13;4.00;;;4.70;71.20;;;;;;5012554;28;20038;-49
2021/11/27 15:36:16;;;;;;;10.18;3.40;;;4.70;71.70;;;;;;5011643;28;20029;-50
2021/11/27 15:38:42;;;;;;;16.15;3.13;;;4.70;72.10;;;;;;5012826;28;20026;-48
2021/11/27 15:41:07;;;;;;;10.10;3.65;;;4.80;72.30;;;;;;5012393;28;20022;-48
2021/11/27 15:43:35;;;;;;;10.10;3.38;;;4.80;72.20;;;;;;5012852;28;20095;-52
2021/11/27 15:46:00;;;;;;;5.47;2.85;;;4.80;72.40;;;;;;5013412;28;20127;-53
2021/11/27 15:48:26;;;;;;;9.30;3.95;;;4.80;72.60;;;;;;5012271;28;20030;-50
2021/11/27 15:50:52;;;;;;;9.75;3.47;;;4.80;73.10;;;;;;5012260;28;20022;-48
2021/11/27 15:53:17;;;;;;;10.32;4.15;;;4.70;73.40;;;;;;5012517;28;20073;-54
2021/11/27 15:55:43;;;;;;;12.02;3.45;;;4.50;73.80;;;;;;5012453;28;20080;-49
2021/11/27 15:58:08;;;;;;;13.77;3.78;;;4.50;74.50;;;;;;5011998;28;20171;-50
2021/11/27 16:00:34;;;;;;;11.52;4.07;;;4.40;74.90;;;;;;5012023;28;20043;-50
2021/11/27 16:03:00;;;;;;;13.00;3.53;;;4.30;75.40;;;;;;5012189;28;20046;-49
2021/11/27 16:05:25;;;;;;;12.30;3.38;;;4.30;75.70;;;;;;5012250;28;20032;-52
2021/11/27 16:07:51;;;;;;;7.47;3.17;;;4.30;75.70;;;;;;5010532;28;20338;-50
2021/11/27 16:10:17;;;;;;;10.65;3.20;;;4.30;75.80;;;;;;5010969;28;20083;-49
2021/11/27 16:12:42;;;;;;;12.00;2.83;;;4.30;76.10;;;;;;5012056;28;20026;-50
2021/11/27 16:15:08;;;;;;;31.33;3.90;;;4.30;76.20;;;;;;5012066;28;20474;-51
2021/11/27 16:17:34;;;;;;;8.80;3.60;;;4.40;75.80;;;;;;5012046;28;20052;-51
2021/11/27 16:20:00;;;;;;;10.27;4.00;;;4.40;75.90;;;;;;5013039;28;20030;-39
2021/11/27 16:22:28;;;;;;;18.90;4.95;;;4.60;75.70;;;;;;5012514;28;20029;-51
2021/11/27 16:24:57;;;;;;;11.98;5.05;;;4.60;75.40;;;;;;5011201;28;20025;-51
2021/11/27 16:27:23;;;;;;;20.25;7.68;;;4.50;75.80;;;;;;5010627;28;20071;-53
2021/11/27 16:29:49;;;;;;;20.90;6.22;;;4.40;76.30;;;;;;5012051;28;20427;-52
2021/11/27 16:32:15;;;;;;;23.75;6.40;;;4.50;76.20;;;;;;5011791;28;20049;-49
2021/11/27 16:34:43;;;;;;;18.00;6.85;;;4.50;76.40;;;;;;5011314;28;20034;-48
2021/11/27 16:37:09;;;;;;;18.10;5.80;;;4.50;76.70;;;;;;5011235;28;20054;-48
2021/11/27 16:39:34;;;;;;;15.90;4.88;;;4.50;76.60;;;;;;5012320;28;20064;-48
2021/11/27 16:42:00;;;;;;;12.73;5.68;;;4.60;76.20;;;;;;5012002;28;20479;-49
2021/11/27 16:44:28;;;;;;;22.70;9.98;;;4.60;76.30;;;;;;5012101;28;20129;-49
2021/11/27 16:46:55;;;;;;;12.70;4.68;;;4.70;76.50;;;;;;5011560;28;20029;-50
2021/11/27 16:49:20;;;;;;;18.73;4.60;;;4.60;76.40;;;;;;5011376;28;20114;-49
2021/11/27 16:51:48;;;;;;;14.00;5.13;;;4.70;76.40;;;;;;5011500;28;20062;-48
2021/11/27 16:54:13;;;;;;;9.10;3.95;;;4.70;75.90;;;;;;5011718;28;20109;-50
2021/11/27 16:56:39;;;;;;;14.25;4.72;;;4.70;76.60;;;;;;5011318;28;20057;-51
2021/11/27 16:59:05;;;;;;;12.40;4.22;;;4.80;76.10;;;;;;5011587;28;20026;-48
2021/11/27 17:01:31;;;;;;;11.93;4.55;;;4.70;76.50;;;;;;5009364;28;20115;-49
2021/11/27 17:03:57;;;;;;;15.70;4.78;;;4.70;76.40;;;;;;5011369;28;20030;-51
2021/11/27 17:06:24;;;;;;;13.90;4.78;;;4.70;76.50;;;;;;5011107;28;20091;-49
2021/11/27 17:08:50;;;;;;;17.27;5.18;;;4.60;76.60;;;;;;5011947;28;20108;-48
2021/11/27 17:11:16;;;;;;;14.00;5.13;;;4.60;76.40;;;;;;5011445;28;20033;-48
2021/11/27 17:13:47;;;;;;;16.75;5.55;;;4.60;77.10;;;;;;5011867;28;20030;-51
2021/11/27 17:16:14;;;;;;;15.40;4.72;;;4.50;76.80;;;;;;5011199;28;20026;-49
2021/11/27 17:18:39;;;;;;;13.55;4.97;;;4.50;77.20;;;;;;5010539;28;20053;-47
2021/11/27 17:21:05;;;;;;;15.63;5.10;;;4.60;77.20;;;;;;5009243;28;20470;-40
2021/11/27 17:23:31;;;;;;;16.85;5.43;;;4.70;76.90;;;;;;5009736;28;20502;-38
2021/11/27 17:25:56;;;;;;;14.70;4.47;;;4.80;76.70;;;;;;5009699;28;20030;-38
2021/11/27 17:28:22;;;;;;;11.73;5.30;;;4.80;76.80;;;;;;5010874;28;20018;-43
2021/11/27 17:30:48;;;;;;;19.58;4.78;;;4.80;75.90;;;;;;5011132;28;20504;-38
2021/11/27 17:33:15;;;;;;;9.70;4.65;;;4.80;77.20;;;;;;5010303;28;20097;-38
2021/11/27 17:35:41;;;;;;;15.93;6.05;;;4.80;76.80;;;;;;5010393;28;20029;-40
2021/11/27 17:38:09;;;;;;;12.93;5.65;;;4.60;77.40;;;;;;5010305;28;20025;-40
2021/11/27 17:40:36;;;;;;;11.52;4.88;;;4.70;76.90;;;;;;5011019;28;20026;-39
2021/11/27 17:43:01;;;;;;;18.60;5.47;;;4.80;76.70;;;;;;5010407;28;20109;-38
2021/11/27 17:45:27;;;;;;;14.68;5.65;;;4.70;77.10;;;;;;5010348;28;20049;-38
2021/11/27 17:47:53;;;;;;;14.07;4.75;;;4.70;77.10;;;;;;5009280;28;20046;-38
2021/11/27 17:50:18;;;;;;;14.05;5.38;;;4.70;76.80;;;;;;5010737;28;20033;-38
2021/11/27 17:52:44;;;;;;;19.45;5.45;;;4.60;77.20;;;;;;5010406;28;20109;-38
2021/11/27 17:55:12;;;;;;;10.70;4.93;;;4.50;77.20;;;;;;5010389;28;20034;-38
2021/11/27 17:57:37;;;;;;;14.85;5.65;;;4.70;77.10;;;;;;5010021;28;20025;-38
2021/11/27 18:00:05;;;;;;;14.35;5.38;;;4.60;77.30;;;;;;5009708;28;20030;-39
2021/11/27 18:02:31;;;;;;;18.60;5.78;;;4.60;77.20;;;;;;5009930;28;20041;-38
2021/11/27 18:04:56;;;;;;;20.50;5.43;;;4.60;77.10;;;;;;5010541;28;20030;-38
2021/11/27 18:07:23;;;;;;;7.18;3.63;;;4.60;76.70;;;;;;5010091;28;20030;-38
2021/11/27 18:09:48;;;;;;;11.68;4.28;;;4.50;76.80;;;;;;5009983;28;20049;-38
2021/11/27 18:12:14;;;;;;;14.95;4.55;;;4.50;77.30;;;;;;5009558;28;20424;-40
2021/11/27 18:14:40;;;;;;;12.95;5.07;;;4.60;76.80;;;;;;5009459;28;20104;-38
2021/11/27 18:17:06;;;;;;;16.88;6.57;;;4.60;76.70;;;;;;5009597;28;20026;-39
2021/11/27 18:19:32;;;;;;;9.77;4.07;;;4.50;77.00;;;;;;5009853;28;20033;-38
2021/11/27 18:21:57;;;;;;;14.25;4.38;;;4.70;76.10;;;;;;5010512;28;20034;-39
2021/11/27 18:24:35;;;;;;;10.15;3.50;;;4.80;75.80;;;;;;5009875;28;20042;-39
2021/11/27 18:29:40;;;;;;;15.02;6.07;;;4.60;76.60;;;;;;5010217;28;20022;-39
2021/11/27 18:32:12;;;;;;;10.93;4.32;;;4.70;75.90;;;;;;5009980;28;20120;-39
2021/11/27 18:34:39;;;;;;;10.55;4.35;;;4.60;75.90;;;;;;5010013;28;20051;-38
2021/11/27 18:37:05;;;;;;;12.88;4.13;;;4.70;76.00;;;;;;5009795;28;20066;-38
2021/11/27 18:39:31;;;;;;;11.60;4.00;;;4.70;75.60;;;;;;5008722;28;20030;-38
2021/11/27 18:41:56;;;;;;;6.50;3.80;;;4.80;75.70;;;;;;5008510;28;20034;-38
2021/11/27 18:44:25;;;;;;;13.40;5.25;;;4.50;75.80;;;;;;5009854;28;20052;-39
2021/11/27 18:46:52;;;;;;;15.77;4.65;;;4.40;76.90;;;;;;5010042;28;20034;-38
2021/11/27 18:49:18;;;;;;;10.68;3.80;;;4.50;76.40;;;;;;5012153;28;20079;-38
2021/11/27 18:51:45;;;;;;;14.82;4.35;;;4.40;76.20;;;;;;5012886;28;20128;-38
2021/11/27 18:54:11;;;;;;;12.93;5.10;;;4.50;76.40;;;;;;5013020;28;20026;-38
2021/11/27 18:56:38;;;;;;;8.55;3.65;;;4.60;76.00;;;;;;5012749;28;20060;-38
2021/11/27 18:59:04;;;;;;;8.48;3.85;;;4.60;76.20;;;;;;5012837;28;20448;-38
2021/11/27 19:01:31;;;;;;;14.55;4.63;;;4.60;75.40;;;;;;5012558;28;20133;-39
2021/11/27 19:03:57;;;;;;;10.10;4.05;;;4.50;75.70;;;;;;5012723;28;20053;-39
2021/11/27 19:06:23;;;;;;;12.95;5.47;;;4.50;76.30;;;;;;5013045;28;20516;-39
2021/11/27 19:08:48;;;;;;;14.85;6.30;;;4.50;75.70;;;;;;5012897;28;20438;-39
2021/11/27 19:11:14;;;;;;;18.63;7.75;;;4.80;75.30;;;;;;5013346;28;20419;-39
2021/11/27 19:13:42;;;;;;;10.48;4.28;;;4.70;75.30;;;;;;5013542;28;20049;-39
2021/11/27 19:16:09;;;;;;;15.32;6.10;;;4.60;75.40;;;;;;5011473;28;20170;-39
2021/11/27 19:18:36;;;;;;;13.65;4.20;;;4.50;75.40;;;;;;5012920;28;20034;-39
2021/11/27 19:21:02;;;;;;;22.88;6.93;;;4.30;76.40;;;;;;5012684;28;20030;-39
2021/11/27 19:23:30;;;;;;;11.32;4.30;;;4.30;77.20;;;;;;5013258;28;20385;-39
2021/11/27 19:26:01;;;;;;;9.30;4.65;;;4.30;76.90;;;;;;5012694;28;20068;-39
2021/11/27 19:28:30;;;;;;;14.63;5.63;;;4.30;76.80;;;;;;5012489;28;20060;-39
2021/11/27 19:30:58;;;;;;;10.80;4.53;;;4.00;77.70;;;;;;5012817;28;20116;-39
2021/11/27 19:33:27;;;;;;;8.50;4.47;;;3.80;78.10;;;;;;5012947;28;20030;-39
2021/11/27 19:36:01;;;;;;;10.65;5.07;;;3.80;77.90;;;;;;5012775;28;20025;-39
2021/11/27 19:38:27;;;;;;;10.63;4.53;;;3.70;78.20;;;;;;5012799;28;20051;-39
2021/11/27 19:40:53;;;;;;;14.63;4.72;;;3.70;78.90;;;;;;5012569;28;20037;-38
2021/11/27 19:43:20;;;;;;;12.05;5.00;;;3.60;78.80;;;;;;5016837;28;20424;-39
2021/11/27 19:45:47;;;;;;;11.05;4.75;;;3.60;79.00;;;;;;5013829;28;20075;-39
2021/11/27 19:48:14;;;;;;;10.15;4.85;;;3.60;78.90;;;;;;5013805;28;20022;-38
2021/11/27 19:50:41;;;;;;;11.40;5.30;;;3.60;79.00;;;;;;5013435;28;20026;-38
2021/11/27 19:53:07;;;;;;;15.38;5.93;;;3.50;79.10;;;;;;5012757;28;20030;-38
2021/11/27 19:55:33;;;;;;;13.32;6.43;;;3.50;79.50;;;;;;5012271;28;20034;-38
2021/11/27 19:58:00;;;;;;;13.00;6.10;;;3.60;79.50;;;;;;5012272;28;20030;-39
2021/11/27 20:00:26;;;;;;;14.60;6.30;;;3.60;79.30;;;;;;5010910;28;20037;-39
2021/11/27 20:02:51;;;;;;;9.55;6.03;;;3.50;79.50;;;;;;5012308;28;20042;-40
2021/11/27 20:05:17;;;;;;;14.02;5.15;;;3.50;79.80;;;;;;5012675;28;20075;-39
2021/11/27 20:07:47;;;;;;;10.55;5.70;;;3.40;79.90;;;;;;5012158;28;20034;-39
2021/11/27 20:10:12;;;;;;;12.05;5.53;;;3.40;80.00;;;;;;5012012;28;20018;-40
2021/11/27 20:12:39;;;;;;;12.60;5.53;;;3.30;80.10;;;;;;5012369;28;20065;-40
2021/11/27 20:15:07;;;;;;;24.40;6.82;;;3.30;80.20;;;;;;5012550;28;20033;-40
2021/11/27 20:17:33;;;;;;;11.20;6.00;;;3.30;80.20;;;;;;5012113;28;20087;-39
2021/11/27 20:19:58;;;;;;;14.25;7.00;;;3.40;80.10;;;;;;5012502;28;20030;-39
2021/11/27 20:22:25;;;;;;;10.88;6.03;;;3.40;80.20;;;;;;5011701;28;20034;-40
2021/11/27 20:24:51;;;;;;;16.80;6.85;;;3.40;79.80;;;;;;5012262;28;20026;-39
2021/11/27 20:27:16;;;;;;;14.75;7.68;;;3.30;80.20;;;;;;5012035;28;20026;-39
2021/11/27 20:29:42;;;;;;;16.08;7.45;;;3.30;80.50;;;;;;5012221;28;20481;-39
2021/11/27 20:32:09;;;;;;;14.98;6.72;;;3.30;80.30;;;;;;5011779;28;20037;-40
2021/11/27 20:34:35;;;;;;;19.92;6.80;;;3.20;80.60;;;;;;5011821;28;20050;-39
2021/11/27 20:37:00;;;;;;;16.05;7.45;;;3.10;81.00;;;;;;5012346;28;20469;-39
2021/11/27 20:39:26;;;;;;;15.02;6.82;;;3.10;81.30;;;;;;5012043;28;20037;-38
2021/11/27 20:41:52;;;;;;;16.63;7.15;;;3.00;81.10;;;;;;5011373;28;20030;-47
2021/11/27 20:44:18;;;;;;;9.82;6.10;;;3.10;81.30;;;;;;5010670;28;20030;-38
2021/11/27 20:46:44;;;;;;;15.80;7.43;;;3.10;81.10;;;;;;5011823;28;20025;-38
2021/11/27 20:49:10;;;;;;;23.85;8.93;;;3.00;81.10;;;;;;5011916;28;20026;-38
2021/11/27 20:51:36;;;;;;;15.63;7.32;;;3.10;81.00;;;;;;5011679;28;20535;-40
2021/11/27 20:54:05;;;;;;;12.02;6.70;;;3.00;81.00;;;;;;5011666;28;20121;-39
2021/11/27 20:56:32;;;;;;;13.32;7.10;;;3.10;80.90;;;;;;5011355;28;20026;-38
2021/11/27 20:58:58;;;;;;;16.85;6.57;;;3.00;80.90;;;;;;5010128;28;20527;-38
2021/11/27 21:01:24;;;;;;;13.40;6.88;;;2.90;81.30;;;;;;5011031;28;20489;-38
2021/11/27 21:03:50;;;;;;;12.77;6.28;;;2.80;81.60;;;;;;5011519;28;20026;-40
2021/11/27 21:06:17;;;;;;;13.95;6.65;;;2.90;81.50;;;;;;5011296;28;20381;-40
2021/11/27 21:08:44;;;;;;;20.98;8.57;;;2.90;81.60;;;;;;5011994;28;20049;-39
2021/11/27 21:11:13;;;;;;;16.42;6.90;;;3.00;81.70;;;;;;5010867;28;20025;-38
2021/11/27 21:13:39;;;;;;;18.85;8.88;;;3.20;80.70;;;;;;5011413;28;20026;-38
2021/11/27 21:16:06;;;;;;;18.00;7.25;;;3.20;80.80;;;;;;5011267;28;20056;-38
2021/11/27 21:18:32;;;;;;;16.05;8.45;;;3.30;80.40;;;;;;5011067;28;20068;-38
2021/11/27 21:20:58;;;;;;;11.50;6.68;;;3.30;80.20;;;;;;5011315;28;20033;-38
2021/11/27 21:23:26;;;;;;;11.38;5.97;;;3.40;80.30;;;;;;5010232;28;20378;-39
2021/11/27 21:25:52;;;;;;;24.27;8.30;;;3.30;80.10;;;;;;5010955;28;20026;-38
2021/11/27 21:28:17;;;;;;;21.95;9.07;;;3.30;80.50;;;;;;5010851;28;20071;-41
2021/11/27 21:30:43;;;;;;;16.70;8.23;;;3.40;80.50;;;;;;5011132;28;20029;-39
2021/11/27 21:33:09;;;;;;;32.15;10.05;;;3.60;80.00;;;;;;5010811;28;20036;-39
2021/11/27 21:35:35;;;;;;;17.58;8.25;;;3.60;79.70;;;;;;4993900;28;20022;-39
2021/11/27 21:38:02;;;;;;;23.48;8.43;;;3.60;79.60;;;;;;5010488;28;20026;-38
2021/11/27 21:40:28;;;;;;;12.40;6.40;;;3.70;79.20;;;;;;5010925;28;20022;-38
2021/11/27 21:42:53;;;;;;;15.25;7.40;;;3.50;79.70;;;;;;5010824;28;20109;-38
2021/11/27 21:45:19;;;;;;;16.55;7.00;;;3.40;79.80;;;;;;5011871;28;20414;-39
2021/11/27 21:47:45;;;;;;;15.80;8.43;;;3.70;79.80;;;;;;5011244;28;20018;-40
2021/11/27 21:50:10;;;;;;;20.77;9.38;;;3.90;78.30;;;;;;5010693;28;20519;-39
2021/11/27 21:52:38;;;;;;;27.38;9.50;;;3.70;78.70;;;;;;5010494;28;20388;-39
2021/11/27 21:55:05;;;;;;;18.85;8.70;;;3.70;79.00;;;;;;5010841;28;20022;-39
2021/11/27 21:57:31;;;;;;;15.50;7.18;;;3.70;78.70;;;;;;5009133;28;20026;-39
2021/11/27 21:59:56;;;;;;;13.77;7.40;;;3.50;79.20;;;;;;5010479;28;20034;-39
2021/11/27 22:02:23;;;;;;;18.52;7.65;;;3.70;79.20;;;;;;5010008;28;20502;-39
2021/11/27 22:04:50;;;;;;;15.23;7.93;;;3.50;79.60;;;;;;5010370;28;20026;-39
2021/11/27 22:07:20;;;;;;;11.18;6.43;;;3.50;79.60;;;;;;5010711;28;20515;-39
2021/11/27 22:09:47;;;;;;;11.35;5.80;;;3.40;79.70;;;;;;5010646;28;20122;-41
2021/11/27 22:12:13;;;;;;;19.45;6.47;;;3.50;79.60;;;;;;5010293;28;20054;-39
2021/11/27 22:14:39;;;;;;;11.57;5.95;;;3.50;79.40;;;;;;5010314;28;20057;-39
2021/11/27 22:17:05;;;;;;;13.32;6.63;;;3.70;79.10;;;;;;5009925;28;20034;-39
2021/11/27 22:19:32;;;;;;;14.80;5.95;;;3.70;78.90;;;;;;5010148;28;20026;-38
2021/11/27 22:21:58;;;;;;;13.20;5.38;;;3.50;79.30;;;;;;5010225;28;20075;-37
2021/11/27 22:24:24;;;;;;;12.48;7.18;;;3.70;79.40;;;;;;5010823;28;20030;-38
2021/11/27 22:26:50;;;;;;;15.15;6.68;;;3.70;78.90;;;;;;5012054;28;20113;-38
2021/11/27 22:29:15;;;;;;;14.02;6.55;;;3.60;79.10;;;;;;5013560;28;20025;-38
2021/11/27 22:31:43;;;;;;;15.27;7.38;;;3.50;79.40;;;;;;5013780;28;20026;-39
2021/11/27 22:34:09;;;;;;;16.58;5.90;;;3.50;79.80;;;;;;5013471;28;20406;-39
2021/11/27 22:36:35;;;;;;;11.30;6.53;;;3.40;79.80;;;;;;5013397;28;20120;-39
2021/11/27 22:39:01;;;;;;;10.40;6.45;;;3.50;79.90;;;;;;5013327;28;20040;-38
2021/11/27 22:41:27;;;;;;;13.65;6.40;;;3.30;79.80;;;;;;5013632;28;20529;-38
2021/11/27 22:43:53;;;;;;;14.00;6.15;;;3.40;80.10;;;;;;5013464;28;20079;-38
2021/11/27 22:46:18;;;;;;;16.08;7.22;;;3.30;80.10;;;;;;5014387;28;20411;-37
2021/11/27 22:48:44;;;;;;;15.15;7.57;;;3.30;80.10;;;;;;5014126;28;20026;-38